Time;durP1;ratioP1;P1;durP2;ratioP2;P2;SDS_P1;SDS_P2;PMS_P1;PMS_P2;Temp;Humidity;BMP_temperature;BMP_pressure;BME280_temperature;BME280_humidity;BME280_pressure;Samples;Min_cycle;Max_cycle;Signal;HPM_P1;HPM_P2
2022/06/27 00:01:09;;;;;;;4.90;3.55;;;;;;;22.70;53.90;99802.35;1716792;83;20989;-44
2022/06/27 00:03:37;;;;;;;5.10;3.30;;;;;;;22.71;53.99;99808.03;1715820;83;21113;-43
2022/06/27 00:06:04;;;;;;;4.03;3.50;;;;;;;22.69;53.98;99803.52;1690778;83;21053;-43
2022/06/27 00:08:34;;;;;;;3.47;3.17;;;;;;;22.70;54.13;99809.27;1686755;83;20968;-43
2022/06/27 00:11:04;;;;;;;3.90;3.37;;;;;;;22.70;54.18;99807.07;1713682;83;21104;-43
2022/06/27 00:13:31;;;;;;;3.92;3.52;;;;;;;22.67;54.25;99804.55;1698190;83;20996;-43
2022/06/27 00:16:00;;;;;;;7.08;3.62;;;;;;;22.66;54.28;99808.52;1710620;83;21596;-43
2022/06/27 00:18:28;;;;;;;5.45;3.67;;;;;;;22.65;54.36;99804.22;1701993;83;21656;-43
2022/06/27 00:20:56;;;;;;;5.03;3.75;;;;;;;22.64;54.27;99801.88;1686986;83;21138;-42
2022/06/27 00:24:14;;;;;;;5.22;3.70;;;;;;;22.66;54.37;99811.27;1797240;79;22727;-42
2022/06/27 00:26:42;;;;;;;7.30;4.03;;;;;;;;;;1757563;80;21503;-42
2022/06/27 00:29:11;;;;;;;5.15;3.55;;;;;;;22.59;54.61;99816.20;1757346;81;21485;-42
2022/06/27 00:31:39;;;;;;;6.55;4.05;;;;;;;22.58;54.72;99812.66;1757319;81;20953;-42
2022/06/27 00:34:06;;;;;;;6.28;4.03;;;;;;;22.57;54.85;99811.69;1757349;81;21284;-42
2022/06/27 00:36:34;;;;;;;5.03;3.98;;;;;;;22.54;55.06;99805.84;1757393;81;20972;-42
2022/06/27 00:39:01;;;;;;;4.62;3.77;;;;;;;22.54;55.25;99809.20;1757073;81;21319;-42
2022/06/27 00:41:29;;;;;;;5.53;4.25;;;;;;;22.52;55.23;99814.36;1757165;81;21242;-42
2022/06/27 00:43:56;;;;;;;6.92;4.47;;;;;;;22.50;55.29;99812.65;1757201;81;20957;-42
2022/06/27 00:46:23;;;;;;;8.63;4.45;;;;;;;22.49;55.39;99813.85;1757168;81;20898;-42
2022/06/27 00:48:50;;;;;;;5.70;4.67;;;;;;;22.47;55.52;99818.41;1757191;81;20973;-42
2022/06/27 00:51:17;;;;;;;6.87;4.70;;;;;;;22.46;55.52;99818.87;1757077;81;20966;-42
2022/06/27 00:53:45;;;;;;;6.12;4.72;;;;;;;22.43;55.56;99814.95;1756858;81;21179;-42
2022/06/27 00:56:12;;;;;;;6.50;4.75;;;;;;;22.41;55.75;99815.23;1757046;81;21626;-42
2022/06/27 00:58:39;;;;;;;7.42;4.85;;;;;;;22.39;55.84;99814.86;1757184;81;20882;-42
2022/06/27 01:01:06;;;;;;;7.90;5.20;;;;;;;22.37;55.96;99817.27;1756997;81;21566;-42
2022/06/27 01:03:34;;;;;;;6.28;4.87;;;;;;;22.33;56.03;99815.97;1756636;81;21586;-42
2022/06/27 01:06:03;;;;;;;8.58;5.20;;;;;;;22.32;56.19;99817.77;1757251;81;21138;-42
2022/06/27 01:08:30;;;;;;;7.85;5.42;;;;;;;22.29;56.26;99812.51;1757329;81;21567;-42
2022/06/27 01:10:57;;;;;;;8.08;5.03;;;;;;;22.28;56.40;99818.45;1756776;81;21002;-42
2022/06/27 01:13:25;;;;;;;7.35;5.45;;;;;;;22.26;56.52;99819.50;1757330;81;21036;-42
2022/06/27 01:15:53;;;;;;;6.67;5.22;;;;;;;22.24;56.60;99824.66;1757343;81;20986;-42
2022/06/27 01:18:20;;;;;;;8.60;5.60;;;;;;;22.23;56.61;99821.71;1695242;83;21238;-42
2022/06/27 01:20:48;;;;;;;6.95;5.30;;;;;;;22.20;56.63;99818.44;1723635;83;21517;-42
2022/06/27 01:23:15;;;;;;;7.25;5.45;;;;;;;22.17;56.67;99820.68;1719801;83;20965;-42
2022/06/27 01:25:42;;;;;;;8.25;5.92;;;;;;;22.15;56.80;99821.09;1715904;83;20960;-42
2022/06/27 01:28:11;;;;;;;9.70;6.05;;;;;;;22.15;56.87;99820.31;1752146;81;20970;-42
2022/06/27 01:30:39;;;;;;;8.15;5.75;;;;;;;22.10;56.95;99818.23;1752062;81;21249;-42
2022/06/27 01:33:06;;;;;;;8.08;5.60;;;;;;;22.08;56.96;99822.61;1752372;81;20973;-42
2022/06/27 01:35:36;;;;;;;8.65;5.72;;;;;;;22.05;57.17;99822.88;1715482;83;21020;-41
2022/06/27 01:38:04;;;;;;;7.90;5.87;;;;;;;22.04;57.21;99824.07;1715422;83;20980;-42
2022/06/27 01:40:32;;;;;;;8.33;5.67;;;;;;;22.03;57.30;99823.11;1715381;83;21049;-42
2022/06/27 01:43:01;;;;;;;7.35;5.70;;;;;;;22.01;57.34;99824.16;1715706;83;21235;-42
2022/06/27 01:45:29;;;;;;;6.78;5.72;;;;;;;21.99;57.38;99820.42;1727556;82;21024;-42
2022/06/27 01:47:57;;;;;;;9.45;6.17;;;;;;;21.99;57.39;99822.41;1751957;82;21393;-42
2022/06/27 01:50:26;;;;;;;9.70;5.35;;;;;;;21.98;57.46;99820.84;1751849;82;21396;-42
2022/06/27 01:52:53;;;;;;;9.18;6.03;;;;;;;21.95;57.59;99818.94;1715511;83;21009;-42
2022/06/27 01:55:20;;;;;;;7.08;5.72;;;;;;;21.93;57.67;99822.12;1715553;83;21957;-42
2022/06/27 01:57:48;;;;;;;8.28;5.47;;;;;;;21.93;57.75;99828.23;1711430;82;21041;-42
2022/06/27 02:00:16;;;;;;;7.85;6.12;;;;;;;21.91;57.81;99825.89;1689710;85;21557;-42
2022/06/27 02:02:59;;;;;;;7.33;5.50;;;;;;;21.91;57.82;99829.25;1689590;85;20981;-42
2022/06/27 02:05:28;;;;;;;10.25;5.65;;;;;;;21.90;58.01;99824.33;1689773;85;21056;-42
2022/06/27 02:07:56;;;;;;;7.65;5.60;;;;;;;21.88;58.06;99825.34;1689918;85;21599;-42
2022/06/27 02:10:23;;;;;;;10.55;5.45;;;;;;;21.88;58.11;99819.82;1689822;85;21002;-42
2022/06/27 02:12:51;;;;;;;6.62;5.00;;;;;;;21.88;58.23;99826.72;1707778;83;21016;-42
2022/06/27 02:15:18;;;;;;;6.92;5.75;;;;;;;21.92;58.22;99824.70;1695175;84;20977;-42
2022/06/27 02:17:46;;;;;;;9.83;5.28;;;;;;;21.94;58.18;99827.83;1695174;83;21052;-42
2022/06/27 02:20:14;;;;;;;7.20;5.05;;;;;;;21.96;58.10;99825.43;1695340;84;21230;-42
2022/06/27 02:22:42;;;;;;;9.03;5.45;;;;;;;22.01;58.15;99829.08;1694171;83;21059;-42
2022/06/27 02:25:10;;;;;;;6.60;4.85;;;;;;;22.05;58.10;99829.78;1687512;85;21011;-42
2022/06/27 02:27:37;;;;;;;5.33;4.50;;;;;;;22.08;58.22;99829.52;1687710;85;21508;-42
2022/06/27 02:30:05;;;;;;;10.10;4.65;;;;;;;22.09;58.18;99829.09;1671969;85;21113;-42
2022/06/27 02:32:32;;;;;;;5.40;4.30;;;;;;;22.14;58.08;99840.25;1671612;85;21133;-42
2022/06/27 02:34:59;;;;;;;8.60;5.05;;;;;;;22.17;58.11;99845.53;1671688;85;21074;-42
2022/06/27 02:37:29;;;;;;;6.00;5.22;;;;;;;22.18;58.11;99840.16;1671907;85;21050;-42
2022/06/27 02:39:56;;;;;;;7.53;5.22;;;;;;;22.18;58.14;99843.70;1671771;85;21072;-42
2022/06/27 02:42:24;;;;;;;6.25;4.90;;;;;;;22.18;58.22;99849.83;1671685;85;21037;-42
2022/06/27 02:44:51;;;;;;;6.97;5.22;;;;;;;22.17;58.24;99851.84;1672005;85;21178;-42
2022/06/27 02:47:21;;;;;;;6.90;5.22;;;;;;;22.17;58.26;99853.22;1671617;85;21040;-42
2022/06/27 02:49:48;;;;;;;9.15;5.42;;;;;;;22.16;58.44;99854.42;1672296;85;21090;-42
2022/06/27 02:52:29;;;;;;;7.22;5.42;;;;;;;22.14;58.46;99856.81;1671743;85;21552;-42
2022/06/27 02:55:03;;;;;;;8.35;5.47;;;;;;;22.16;58.61;99857.78;1670268;85;21050;-42
2022/06/27 02:57:53;;;;;;;7.35;5.30;;;;;;;22.16;58.58;99861.92;1671486;85;23121;-42
2022/06/27 03:00:21;;;;;;;7.78;5.45;;;;;;;22.17;58.65;99860.73;1672203;85;21065;-42
2022/06/27 03:02:48;;;;;;;6.20;4.95;;;;;;;22.19;58.64;99859.08;1671751;85;21378;-42
2022/06/27 03:05:29;;;;;;;7.67;4.75;;;;;;;22.22;58.70;99860.98;1670741;85;20998;-42
2022/06/27 03:07:57;;;;;;;8.95;5.50;;;;;;;22.26;58.58;99858.95;1671870;85;21089;-42
2022/06/27 03:10:26;;;;;;;10.85;5.60;;;;;;;22.32;58.65;99864.72;1671657;85;21214;-42
2022/06/27 03:12:53;;;;;;;5.45;4.92;;;;;;;22.36;58.56;99866.23;1671975;85;21014;-42
2022/06/27 03:15:22;;;;;;;6.12;4.78;;;;;;;22.40;58.42;99871.68;1671780;85;20934;-42
2022/06/27 03:17:49;;;;;;;7.17;4.85;;;;;;;22.42;58.34;99867.27;1671640;85;21066;-42
2022/06/27 03:20:29;;;;;;;7.20;4.65;;;;;;;22.46;58.23;99867.22;1671800;85;21611;-42
2022/06/27 03:23:02;;;;;;;6.20;5.08;;;;;;;22.49;58.20;99869.89;1672541;85;21167;-42
2022/06/27 03:25:31;;;;;;;6.58;4.85;;;;;;;22.50;58.24;99865.16;1679222;85;20958;-42
2022/06/27 03:27:58;;;;;;;5.20;4.70;;;;;;;22.55;58.25;99870.17;1679262;85;21052;-42
2022/06/27 03:30:26;;;;;;;7.53;5.28;;;;;;;22.58;58.09;99865.77;1679125;85;21041;-42
2022/06/27 03:32:53;;;;;;;5.60;4.58;;;;;;;22.61;58.21;99871.20;1679563;85;21108;-42
2022/06/27 03:35:22;;;;;;;6.12;4.92;;;;;;;22.65;58.04;99871.15;1679376;85;21268;-42
2022/06/27 03:37:50;;;;;;;6.25;4.78;;;;;;;22.69;58.02;99878.75;1679276;85;21077;-42
2022/06/27 03:40:17;;;;;;;6.67;4.78;;;;;;;22.70;57.97;99874.22;1679189;85;21018;-42
2022/06/27 03:42:46;;;;;;;5.15;4.65;;;;;;;22.73;58.03;99873.34;1679203;85;21021;-42
2022/06/27 03:45:13;;;;;;;6.28;4.42;;;;;;;22.77;58.10;99871.28;1679355;85;21069;-42
2022/06/27 03:47:50;;;;;;;5.20;4.37;;;;;;;22.82;58.13;99878.28;1679634;85;21310;-42
2022/06/27 03:50:32;;;;;;;;;;;;;;;22.85;58.13;99875.42;1681765;85;20962;-42
2022/06/27 03:52:59;;;;;;;7.37;4.60;;;;;;;22.89;58.05;99878.91;1679402;85;20137;-42
2022/06/27 03:55:27;;;;;;;8.08;4.50;;;;;;;22.87;57.86;99875.78;1679334;85;21654;-42
2022/06/27 03:57:58;;;;;;;7.83;4.50;;;;;;;22.96;57.65;99875.97;1679729;85;21101;-42
2022/06/27 04:00:32;;;;;;;7.47;4.30;;;;;;;23.06;57.63;99878.91;1679370;85;21169;-42
2022/06/27 04:03:00;;;;;;;4.60;4.10;;;;;;;23.13;57.25;99871.84;1679476;85;21053;-42
2022/06/27 04:05:33;;;;;;;6.85;4.17;;;;;;;23.18;57.23;99867.95;1678817;85;21513;-42
2022/06/27 04:08:01;;;;;;;5.37;4.03;;;;;;;23.26;57.38;99864.39;1679204;85;21065;-42
2022/06/27 04:10:29;;;;;;;4.53;4.03;;;;;;;23.33;57.22;99871.16;1679429;85;21112;-42
2022/06/27 04:12:57;;;;;;;5.05;4.30;;;;;;;23.40;56.64;99878.66;1679161;85;21282;-42
2022/06/27 04:15:37;;;;;;;7.12;4.50;;;;;;;23.45;56.47;99873.83;1679075;85;21105;-42
2022/06/27 04:18:05;;;;;;;7.35;4.28;;;;;;;23.50;56.62;99872.70;1675409;85;21089;-42
2022/06/27 04:20:51;;;;;;;5.22;4.33;;;;;;;23.55;56.39;99879.70;1679349;85;21010;-42
2022/06/27 04:23:19;;;;;;;5.00;4.28;;;;;;;23.58;56.07;99869.92;1674238;85;21151;-43
2022/06/27 04:25:54;;;;;;;10.25;5.00;;;;;;;23.65;56.16;99868.97;1665164;85;21246;-42
2022/06/27 04:28:21;;;;;;;4.20;3.80;;;;;;;23.69;56.02;99866.27;1681607;85;21021;-42
2022/06/27 04:30:48;;;;;;;5.53;3.77;;;;;;;23.74;55.78;99865.75;1681659;85;20942;-42
2022/06/27 04:33:16;;;;;;;4.35;3.90;;;;;;;23.80;55.46;99866.77;1681620;85;20989;-42
2022/06/27 04:35:46;;;;;;;8.38;4.42;;;;;;;23.86;55.67;99869.80;1681810;85;21558;-42
2022/06/27 04:38:14;;;;;;;7.25;4.60;;;;;;;23.93;55.43;99864.65;1682033;85;21063;-42
2022/06/27 04:41:01;;;;;;;4.45;4.05;;;;;;;24.00;55.33;99867.23;1678826;85;21013;-42
2022/06/27 04:43:29;;;;;;;5.85;4.00;;;;;;;24.05;54.93;99862.55;1683285;84;20969;-42
2022/06/27 04:45:57;;;;;;;6.15;3.80;;;;;;;24.11;54.91;99863.54;1710246;83;21053;-42
2022/06/27 04:48:34;;;;;;;6.72;4.20;;;;;;;24.16;54.57;99861.04;1707080;84;21516;-42
2022/06/27 04:51:02;;;;;;;5.33;3.60;;;;;;;24.00;54.70;99832.61;1710260;83;21146;-42
2022/06/27 04:53:30;;;;;;;4.53;3.65;;;;;;;24.31;54.41;99872.49;1710092;83;21064;-42
2022/06/27 04:55:58;;;;;;;6.00;4.20;;;;;;;24.40;54.23;99869.09;1710522;84;20989;-42
2022/06/27 04:58:25;;;;;;;4.55;3.67;;;;;;;24.47;54.03;99870.25;1710005;83;21614;-42
2022/06/27 05:00:54;;;;;;;5.17;3.65;;;;;;;24.54;53.74;99870.84;1710196;84;21033;-42
2022/06/27 05:03:26;;;;;;;4.42;3.70;;;;;;;24.63;53.45;99871.56;1708474;83;21255;-42
2022/06/27 05:05:55;;;;;;;4.78;3.65;;;;;;;24.70;53.02;99868.55;1709020;84;28224;-42
2022/06/27 05:08:22;;;;;;;4.55;3.37;;;;;;;24.77;52.71;99865.58;1710111;83;21036;-42
2022/06/27 05:10:50;;;;;;;6.05;3.45;;;;;;;24.87;52.23;99859.56;1710352;83;21032;-42
2022/06/27 05:13:18;;;;;;;4.70;3.22;;;;;;;24.95;51.92;99861.66;1710309;83;21074;-42
2022/06/27 05:15:46;;;;;;;3.65;3.20;;;;;;;25.01;51.48;99863.27;1710418;83;21961;-42
2022/06/27 05:18:15;;;;;;;4.37;3.15;;;;;;;25.05;50.94;99870.86;1710462;83;20915;-42
2022/06/27 05:20:43;;;;;;;4.47;3.70;;;;;;;25.09;50.82;99867.36;1710532;83;21040;-42
2022/06/27 05:23:10;;;;;;;5.92;3.80;;;;;;;25.14;51.19;99868.19;1710498;83;21073;-42
2022/06/27 05:25:39;;;;;;;4.28;3.35;;;;;;;25.19;51.52;99857.91;1703097;83;21093;-42
2022/06/27 05:28:07;;;;;;;5.28;3.52;;;;;;;25.30;51.45;99858.95;1700198;83;21140;-42
2022/06/27 05:30:35;;;;;;;4.65;3.33;;;;;;;25.39;51.42;99861.20;1699961;84;21017;-42
2022/06/27 05:33:02;;;;;;;4.60;3.33;;;;;;;25.48;51.32;99858.52;1700163;84;21070;-42
2022/06/27 05:35:31;;;;;;;4.33;3.50;;;;;;;25.58;51.34;99860.02;1700189;84;21058;-42
2022/06/27 05:37:59;;;;;;;4.35;3.08;;;;;;;25.67;51.73;99855.92;1700151;83;21093;-42
2022/06/27 05:40:28;;;;;;;4.00;2.70;;;;;;;25.76;51.28;99865.11;1699952;83;21100;-43
2022/06/27 05:42:57;;;;;;;4.40;3.30;;;;;;;25.85;51.03;99865.82;1699943;84;28227;-42
2022/06/27 05:45:24;;;;;;;3.62;3.12;;;;;;;25.90;50.40;99867.38;1699864;83;21058;-42
2022/06/27 05:48:10;;;;;;;3.65;3.10;;;;;;;25.93;50.36;99867.89;1700029;84;21302;-42
2022/06/27 05:50:39;;;;;;;5.45;3.33;;;;;;;25.98;49.99;99867.92;1699552;84;21576;-42
2022/06/27 05:53:07;;;;;;;5.35;3.35;;;;;;;26.03;49.68;99868.73;1700030;84;21243;-43
2022/06/27 05:55:35;;;;;;;4.62;2.90;;;;;;;26.09;50.63;99870.32;1688169;84;21516;-43
2022/06/27 05:58:02;;;;;;;5.70;2.90;;;;;;;26.11;49.81;99869.23;1687568;85;21063;-42
2022/06/27 06:00:30;;;;;;;4.00;3.02;;;;;;;26.17;49.67;99869.59;1687451;85;21070;-43
2022/06/27 06:02:58;;;;;;;3.30;2.65;;;;;;;26.25;49.98;99868.12;1687632;85;21052;-42
2022/06/27 06:05:25;;;;;;;5.03;3.33;;;;;;;26.34;49.78;99872.35;1687378;85;21233;-42
2022/06/27 06:07:53;;;;;;;4.17;2.80;;;;;;;26.41;48.96;99875.48;1687437;85;21005;-43
2022/06/27 06:10:21;;;;;;;3.52;2.87;;;;;;;26.49;48.67;99873.98;1686661;85;21073;-42
2022/06/27 06:12:50;;;;;;;10.35;2.83;;;;;;;26.60;48.65;99877.75;1687376;85;21591;-43
2022/06/27 06:15:19;;;;;;;5.85;3.00;;;;;;;26.70;48.91;99876.56;1687478;85;21041;-43
2022/06/27 06:17:47;;;;;;;6.05;3.17;;;;;;;26.77;47.88;99877.70;1687472;85;21306;-43
2022/06/27 06:20:15;;;;;;;5.27;3.17;;;;;;;26.87;47.66;99873.72;1700039;84;20976;-42
2022/06/27 06:22:45;;;;;;;4.17;3.02;;;;;;;26.94;47.67;99883.19;1695086;84;21053;-42
2022/06/27 06:25:12;;;;;;;4.75;3.20;;;;;;;26.99;47.41;99881.81;1695256;83;21013;-42
2022/06/27 06:27:44;;;;;;;4.63;3.27;;;;;;;27.05;48.09;99877.98;1695500;84;21068;-42
2022/06/27 06:30:11;;;;;;;;;;;;;;;27.12;48.35;99876.90;1697864;84;21136;-42
2022/06/27 06:32:40;;;;;;;6.25;3.65;;;;;;;27.17;48.38;99868.72;1695055;84;20639;-43
2022/06/27 06:35:08;;;;;;;7.35;3.30;;;;;;;27.12;48.52;99868.55;1695360;84;21081;-42
2022/06/27 06:37:41;;;;;;;5.53;4.00;;;;;;;27.18;47.87;99863.32;1695271;84;21029;-42
2022/06/27 06:40:19;;;;;;;5.42;3.65;;;;;;;27.26;47.96;99858.22;1695280;84;21042;-42
2022/06/27 06:42:44;;;;;;;5.45;3.65;;;;;;;27.34;48.41;99862.89;1694426;84;21977;-43
2022/06/27 06:45:13;;;;;;;4.10;3.33;;;;;;;27.40;48.44;99863.84;1692076;84;20925;-43
2022/06/27 06:47:44;;;;;;;4.95;3.67;;;;;;;27.46;48.29;99869.70;1693810;84;21105;-43
2022/06/27 06:50:18;;;;;;;4.67;3.43;;;;;;;27.59;48.16;99875.94;1695139;84;21507;-43
2022/06/27 06:52:42;;;;;;;4.40;3.50;;;;;;;27.59;48.16;99875.94;1707059;84;21376;-43
2022/06/27 06:55:10;;;;;;;5.12;3.85;;;;;;;27.67;48.43;99876.42;1695085;84;21128;-42
2022/06/27 06:57:40;;;;;;;3.60;3.30;;;;;;;27.74;48.07;99871.92;1695308;84;21007;-42
2022/06/27 07:00:09;;;;;;;4.97;3.72;;;;;;;27.80;49.00;99867.91;1695112;84;21670;-43
2022/06/27 07:02:36;;;;;;;4.28;3.87;;;;;;;27.84;48.50;99867.90;1707861;84;21041;-43
2022/06/27 07:05:08;;;;;;;8.63;3.67;;;;;;;27.92;47.95;99864.97;1694965;84;21047;-43
2022/06/27 07:07:34;;;;;;;7.85;3.58;;;;;;;28.02;48.08;99865.13;1694819;83;21127;-42
2022/06/27 07:10:02;;;;;;;4.05;3.65;;;;;;;28.16;48.23;99869.31;1707687;84;20969;-43
2022/06/27 07:12:33;;;;;;;6.62;3.55;;;;;;;28.29;47.76;99871.91;1695050;84;21100;-43
2022/06/27 07:15:01;;;;;;;4.72;3.55;;;;;;;28.40;48.13;99869.42;1694889;84;21550;-43
2022/06/27 07:17:29;;;;;;;5.92;3.65;;;;;;;28.51;47.98;99869.70;1695218;84;21586;-43
2022/06/27 07:19:58;;;;;;;6.35;3.67;;;;;;;28.60;47.91;99873.86;1695102;84;21202;-43
2022/06/27 07:22:26;;;;;;;5.37;3.55;;;;;;;28.70;47.36;99869.80;1695210;84;21568;-43
2022/06/27 07:24:53;;;;;;;5.42;3.40;;;;;;;28.84;47.17;99866.36;1694982;83;20969;-43
2022/06/27 07:27:20;;;;;;;4.85;2.90;;;;;;;28.95;45.37;99867.21;1695073;84;20918;-43
2022/06/27 07:29:48;;;;;;;5.17;3.40;;;;;;;29.07;45.76;99868.25;1695108;84;21049;-43
2022/06/27 07:32:16;;;;;;;5.10;3.10;;;;;;;29.21;45.69;99868.95;1695079;84;22117;-43
2022/06/27 07:34:43;;;;;;;3.92;2.95;;;;;;;29.34;44.99;99865.31;1695086;84;21283;-43
2022/06/27 07:37:11;;;;;;;6.47;3.10;;;;;;;29.47;44.64;99863.70;1695407;84;21512;-43
2022/06/27 07:39:38;;;;;;;3.80;3.10;;;;;;;29.56;44.16;99862.23;1695169;84;21085;-43
2022/06/27 07:42:07;;;;;;;7.60;3.25;;;;;;;29.65;43.72;99866.35;1695294;84;21057;-43
2022/06/27 07:44:34;;;;;;;4.85;3.30;;;;;;;29.72;43.44;99863.98;1695086;84;21218;-42
2022/06/27 07:47:03;;;;;;;3.87;2.72;;;;;;;29.82;43.90;99863.91;1695075;84;21060;-43
2022/06/27 07:49:32;;;;;;;3.60;3.17;;;;;;;29.86;43.94;99863.08;1699975;84;20948;-43
2022/06/27 07:51:59;;;;;;;6.73;3.00;;;;;;;29.91;43.10;99868.81;1695282;84;21016;-43
2022/06/27 07:54:27;;;;;;;6.10;2.98;;;;;;;29.99;43.49;99870.59;1694951;84;21099;-43
2022/06/27 07:57:00;;;;;;;4.10;2.90;;;;;;;30.08;42.42;99870.51;1695155;84;22068;-43
2022/06/27 07:59:25;;;;;;;3.95;3.00;;;;;;;30.19;41.88;99869.33;1694157;84;21607;-43
2022/06/27 08:01:52;;;;;;;6.40;2.70;;;;;;;30.32;41.44;99867.01;1695175;84;21092;-43
2022/06/27 08:04:21;;;;;;;3.15;2.12;;;;;;;30.41;41.27;99865.51;1699764;84;21072;-42
2022/06/27 08:06:49;;;;;;;6.65;2.47;;;;;;;30.49;39.10;99861.11;1695037;84;21068;-42
2022/06/27 08:09:21;;;;;;;4.58;2.10;;;;;;;30.60;38.92;99869.67;1685238;84;21631;-42
2022/06/27 08:11:45;;;;;;;3.87;2.30;;;;;;;30.71;38.32;99863.48;1666713;85;21700;-42
2022/06/27 08:14:19;;;;;;;4.03;2.15;;;;;;;30.80;38.10;99870.99;1666932;86;21032;-42
2022/06/27 08:16:46;;;;;;;4.87;2.47;;;;;;;30.85;37.63;99875.91;1666764;85;21568;-43
2022/06/27 08:19:13;;;;;;;4.15;2.62;;;;;;;30.89;37.88;99863.25;1667142;86;21045;-43
2022/06/27 08:21:41;;;;;;;2.55;2.22;;;;;;;30.94;38.07;99861.78;1667086;86;21217;-43
2022/06/27 08:24:09;;;;;;;4.10;2.40;;;;;;;31.01;38.51;99871.20;1667020;86;21150;-43
2022/06/27 08:26:37;;;;;;;4.42;2.37;;;;;;;31.14;38.70;99866.06;1666776;84;21069;-43
2022/06/27 08:29:05;;;;;;;3.85;2.30;;;;;;;31.23;38.02;99870.13;1666907;86;21547;-43
2022/06/27 08:31:33;;;;;;;5.08;2.22;;;;;;;31.35;37.40;99862.66;1667362;86;21081;-42
2022/06/27 08:34:03;;;;;;;2.70;2.50;;;;;;;31.45;36.33;99866.23;1667510;86;21030;-43
2022/06/27 08:36:35;;;;;;;4.97;2.70;;;;;;;31.52;36.02;99862.23;1667286;86;21120;-43
2022/06/27 08:39:07;;;;;;;3.00;2.50;;;;;;;31.60;36.57;99859.19;1667213;85;21055;-42
2022/06/27 08:41:35;;;;;;;4.78;2.70;;;;;;;31.72;36.79;99858.04;1667252;86;21004;-43
2022/06/27 08:44:04;;;;;;;3.72;2.58;;;;;;;31.82;36.33;99859.43;1667116;85;21065;-42
2022/06/27 08:46:31;;;;;;;3.72;2.77;;;;;;;31.93;36.15;99850.38;1667347;86;21239;-43
2022/06/27 08:48:58;;;;;;;3.67;2.50;;;;;;;32.06;35.93;99852.78;1667215;85;21018;-43
2022/06/27 08:51:26;;;;;;;5.92;2.55;;;;;;;32.17;35.36;99847.33;1667114;86;21073;-43
2022/06/27 08:53:54;;;;;;;5.42;2.22;;;;;;;32.23;34.14;99852.36;1667239;86;21029;-43
2022/06/27 08:56:24;;;;;;;7.53;2.60;;;;;;;32.27;33.60;99848.06;1666973;85;21040;-42
2022/06/27 08:58:52;;;;;;;3.95;2.40;;;;;;;32.30;33.70;99847.69;1667313;85;21774;-42
2022/06/27 09:01:24;;;;;;;6.92;2.83;;;;;;;32.34;33.90;99849.00;1667081;86;21001;-42
2022/06/27 09:04:01;;;;;;;7.10;2.67;;;;;;;32.42;34.25;99845.77;1667407;86;21165;-42
2022/06/27 09:06:44;;;;;;;4.03;2.50;;;;;;;32.45;34.29;99848.97;1667127;85;21000;-43
2022/06/27 09:09:13;;;;;;;5.55;2.33;;;;;;;32.40;34.81;99853.27;1665802;86;21124;-42
2022/06/27 09:11:43;;;;;;;4.70;2.37;;;;;;;32.40;33.35;99848.28;1667152;86;21234;-42
2022/06/27 09:14:41;;;;;;;3.00;2.30;;;;;;;32.41;32.59;99848.42;1667320;85;21052;-42
2022/06/27 09:17:12;;;;;;;3.75;2.62;;;;;;;32.47;32.50;99842.23;1667113;86;20977;-42
2022/06/27 09:19:54;;;;;;;4.08;2.35;;;;;;;32.53;32.45;99851.48;1638731;86;21132;-43
2022/06/27 09:22:24;;;;;;;4.37;2.52;;;;;;;32.60;32.55;99840.55;1667055;85;21558;-42
2022/06/27 09:25:04;;;;;;;4.95;2.77;;;;;;;32.74;32.49;99844.50;1667360;85;21099;-42
2022/06/27 09:27:38;;;;;;;2.75;2.40;;;;;;;32.83;32.44;99847.11;1672130;84;21068;-43
2022/06/27 09:30:23;;;;;;;2.45;2.20;;;;;;;32.87;31.96;99844.86;1653048;86;21045;-42
2022/06/27 09:32:54;;;;;;;2.98;2.27;;;;;;;32.85;32.07;99841.78;1652907;86;21598;-42
2022/06/27 09:35:31;;;;;;;3.85;2.33;;;;;;;32.84;31.90;99843.04;1652877;86;21108;-42
2022/06/27 09:38:01;;;;;;;4.15;2.65;;;;;;;32.87;32.19;99832.86;1652684;86;21876;-42
2022/06/27 09:40:30;;;;;;;3.30;2.47;;;;;;;32.90;32.27;99835.42;1652775;86;21000;-42
2022/06/27 09:42:57;;;;;;;5.15;2.58;;;;;;;32.87;32.21;99833.63;1652998;86;21108;-42
2022/06/27 09:45:28;;;;;;;3.90;2.87;;;;;;;32.78;32.46;99833.80;1652623;86;21004;-42
2022/06/27 09:48:03;;;;;;;3.12;2.85;;;;;;;32.67;32.55;99833.11;1652794;86;21131;-42
2022/06/27 09:50:33;;;;;;;4.40;2.83;;;;;;;32.56;32.76;99828.01;1672626;85;21164;-42
2022/06/27 09:53:03;;;;;;;4.55;2.80;;;;;;;32.41;33.25;99821.77;1672894;85;20936;-42
2022/06/27 09:55:30;;;;;;;4.22;2.80;;;;;;;32.27;33.50;99823.44;1647610;85;21047;-43
2022/06/27 09:57:59;;;;;;;5.15;2.85;;;;;;;32.16;33.75;99824.11;1670413;85;21537;-42
2022/06/27 10:00:29;;;;;;;4.17;2.80;;;;;;;32.09;33.76;99821.73;1672675;85;21114;-42
2022/06/27 10:02:57;;;;;;;;;;;;;;;31.97;34.05;99821.47;1675132;85;21146;-42
2022/06/27 10:05:25;;;;;;;3.15;2.80;;;;;;;31.93;34.56;99820.92;1672643;85;20217;-42
2022/06/27 10:08:04;;;;;;;6.10;2.72;;;;;;;31.87;34.49;99817.29;1672633;85;21012;-42
2022/06/27 10:11:09;;;;;;;3.75;2.80;;;;;;;31.95;34.49;99818.41;1658610;86;21009;-42
2022/06/27 10:13:45;;;;;;;2.47;2.27;;;;;;;32.03;34.09;99818.09;1652841;86;21028;-43
2022/06/27 10:16:14;;;;;;;3.00;2.70;;;;;;;32.12;34.87;99805.96;1671730;85;21618;-43
2022/06/27 10:19:02;;;;;;;3.37;2.87;;;;;;;32.24;34.57;99805.55;1653014;86;21677;-42
2022/06/27 10:21:37;;;;;;;3.55;3.20;;;;;;;32.32;34.95;99810.86;1652781;86;21531;-42
2022/06/27 10:24:24;;;;;;;5.72;2.90;;;;;;;32.38;35.21;99811.55;1642884;86;21183;-43
2022/06/27 10:26:57;;;;;;;4.35;2.70;;;;;;;32.45;34.76;99805.46;1648001;86;21618;-43
2022/06/27 10:29:34;;;;;;;4.92;2.92;;;;;;;32.51;34.82;99804.88;1642942;87;21166;-42
2022/06/27 10:32:04;;;;;;;4.83;2.60;;;;;;;32.64;34.57;99810.86;1642900;87;21048;-42
2022/06/27 10:34:50;;;;;;;3.25;2.62;;;;;;;32.82;34.34;99799.27;1667655;86;20960;-42
2022/06/27 10:37:29;;;;;;;3.95;2.58;;;;;;;33.03;34.04;99803.45;1642865;87;21087;-43
2022/06/27 10:40:24;;;;;;;5.20;2.90;;;;;;;33.22;33.43;99798.83;1705716;84;21026;-43
2022/06/27 10:42:55;;;;;;;4.33;2.70;;;;;;;33.35;33.15;99794.94;1705609;84;23090;-43
2022/06/27 10:45:30;;;;;;;3.55;2.70;;;;;;;33.39;32.63;99789.84;1705814;84;20950;-43
2022/06/27 10:48:01;;;;;;;3.55;2.72;;;;;;;33.47;32.25;99795.09;1704782;84;21061;-43
2022/06/27 10:50:31;;;;;;;2.98;2.62;;;;;;;33.49;32.51;99786.94;1705663;84;20945;-43
2022/06/27 10:53:23;;;;;;;4.60;2.50;;;;;;;33.60;31.25;99792.57;1686030;84;21046;-43
2022/06/27 10:55:50;;;;;;;4.08;2.58;;;;;;;33.66;31.21;99791.95;1706100;84;21103;-43
2022/06/27 10:58:29;;;;;;;3.17;2.65;;;;;;;33.63;31.35;99788.13;1705716;84;21582;-43
2022/06/27 11:01:14;;;;;;;4.05;2.50;;;;;;;33.68;31.46;99781.01;1705582;83;20957;-43
2022/06/27 11:03:42;;;;;;;4.22;2.52;;;;;;;33.66;31.36;99790.55;1702139;83;20957;-43
2022/06/27 11:06:13;;;;;;;4.47;2.83;;;;;;;33.56;30.70;99790.65;1705716;84;20966;-43
2022/06/27 11:08:38;;;;;;;4.25;2.77;;;;;;;33.42;30.89;99788.81;1705662;84;21142;-43
2022/06/27 11:11:05;;;;;;;5.60;2.70;;;;;;;33.25;30.96;99783.78;1705547;84;21464;-43
2022/06/27 11:13:47;;;;;;;5.15;2.58;;;;;;;33.05;30.92;99786.09;1705718;84;21061;-43
2022/06/27 11:16:21;;;;;;;4.83;2.62;;;;;;;32.88;31.42;99787.40;1705667;84;21057;-43
2022/06/27 11:19:02;;;;;;;3.40;2.80;;;;;;;32.88;32.01;99788.03;1705383;84;21551;-43
2022/06/27 11:21:36;;;;;;;3.40;2.65;;;;;;;33.05;32.21;99785.46;1705351;84;21090;-43
2022/06/27 11:24:11;;;;;;;3.70;2.62;;;;;;;33.44;32.12;99776.44;1705816;84;20997;-43
2022/06/27 11:26:48;;;;;;;4.20;2.37;;;;;;;33.85;31.36;99777.58;1705554;83;20949;-43
2022/06/27 11:32:11;;;;;;;4.67;2.60;;;;;;;34.65;30.19;99773.63;1705742;84;21085;-43
2022/06/27 11:34:48;;;;;;;5.12;2.60;;;;;;;34.97;30.30;99767.66;1705935;84;21177;-43
2022/06/27 11:37:18;;;;;;;3.80;2.67;;;;;;;35.15;28.77;99774.11;1685424;84;21578;-43
2022/06/27 11:40:05;;;;;;;2.67;2.22;;;;;;;35.12;28.89;99773.11;1706082;84;21488;-43
2022/06/27 11:42:35;;;;;;;4.33;2.60;;;;;;;35.00;28.56;99777.27;1705642;84;21097;-43
2022/06/27 11:45:12;;;;;;;2.98;2.40;;;;;;;34.98;28.67;99773.42;1705025;84;21049;-43
2022/06/27 11:47:45;;;;;;;4.47;2.60;;;;;;;34.97;28.70;99771.89;1705914;84;21224;-43
2022/06/27 11:50:15;;;;;;;2.75;2.27;;;;;;;34.91;28.21;99776.12;1706097;84;21472;-43
2022/06/27 11:52:53;;;;;;;3.50;2.50;;;;;;;34.72;28.31;99768.11;1705836;83;21061;-43